Saint Louis, Missouri
Traffic Map
Current Weather Conditions
Saint Louis, Missouri
Clear
Clear
58°
Feels Like: 58°
Wind Chill: 58° Ceiling: Unl
Heat Index: 58° Visibility: 10mi
Dew Point: 31° Wind: 5mph
Humidity: 36% Direction: 230° (SW)
Pressure: 30.2in Gusts: 0mph
Raw Report DataKCPS 301553Z 23004KT 10SM CLR 14/M01 A3020 RMK AO2 SLP226 T01441006
Traffic Incident Summary
Active as of:
Severity:
Category:
InformationThere was an issue retrieving the traffic information for this location. Please try a different location or try again shortly.
Advertisements
Track Severe Weather on mobile